Time;durP1;ratioP1;P1;durP2;ratioP2;P2;SDS_P1;SDS_P2;PMS_P1;PMS_P2;Temp;Humidity;BMP_temperature;BMP_pressure;BME280_temperature;BME280_humidity;BME280_pressure;Samples;Min_cycle;Max_cycle;Signal;HPM_P1;HPM_P2
2023/08/13 00:00:15;;;;;;;9.20;2.60;;;16.20;99.90;;;;;;5036714;28;20049;-72
2023/08/13 00:02:44;;;;;;;10.60;2.78;;;15.90;99.90;;;;;;5036743;28;20042;-72
2023/08/13 00:05:10;;;;;;;7.90;2.47;;;15.80;99.90;;;;;;5036921;28;20146;-72
2023/08/13 00:07:35;;;;;;;11.95;3.10;;;15.90;99.90;;;;;;5054292;28;20523;-73
2023/08/13 00:10:02;;;;;;;11.27;2.58;;;16.00;99.90;;;;;;5054492;28;20119;-73
2023/08/13 00:12:27;;;;;;;6.90;2.78;;;15.90;99.90;;;;;;5036396;28;20049;-72
2023/08/13 00:14:53;;;;;;;9.52;2.08;;;15.90;99.90;;;;;;5054270;28;20048;-73
2023/08/13 00:17:19;;;;;;;7.07;3.20;;;16.20;99.90;;;;;;5036199;28;20036;-73
2023/08/13 00:19:44;;;;;;;6.93;2.28;;;16.10;99.90;;;;;;5036410;28;20559;-72
2023/08/13 00:22:10;;;;;;;12.38;2.78;;;15.90;99.90;;;;;;5036111;28;20076;-73
2023/08/13 00:24:35;;;;;;;10.98;2.83;;;16.20;99.90;;;;;;5019816;28;20071;-72
2023/08/13 00:27:01;;;;;;;9.52;2.75;;;16.20;99.90;;;;;;5053904;28;20041;-72
2023/08/13 00:29:27;;;;;;;9.02;2.47;;;16.00;99.90;;;;;;5054195;28;20039;-72
2023/08/13 00:31:55;;;;;;;4.63;3.22;;;15.90;99.90;;;;;;5053912;28;20049;-72
2023/08/13 00:34:21;;;;;;;12.52;2.97;;;16.00;99.90;;;;;;5036067;28;20056;-72
2023/08/13 00:36:46;;;;;;;10.00;2.97;;;16.10;99.90;;;;;;5035964;28;20492;-72
2023/08/13 00:39:12;;;;;;;13.35;3.78;;;15.80;99.90;;;;;;5053797;28;20037;-72
2023/08/13 00:41:38;;;;;;;5.22;2.72;;;16.00;99.90;;;;;;5053627;28;20040;-73
2023/08/13 00:44:03;;;;;;;10.85;2.92;;;15.90;99.90;;;;;;5036164;28;20037;-72
2023/08/13 00:46:29;;;;;;;7.25;2.90;;;15.80;99.90;;;;;;5053751;28;20033;-72
2023/08/13 00:48:58;;;;;;;10.10;3.50;;;16.00;99.90;;;;;;5053660;28;20032;-72
2023/08/13 00:51:24;;;;;;;7.93;2.78;;;16.00;99.90;;;;;;5035914;28;20040;-74
2023/08/13 00:53:50;;;;;;;8.20;2.75;;;15.70;99.90;;;;;;5036033;28;20057;-73
2023/08/13 00:56:16;;;;;;;11.25;2.70;;;15.80;99.90;;;;;;5053415;28;20044;-73
2023/08/13 00:58:43;;;;;;;10.20;3.35;;;16.00;99.90;;;;;;5035481;28;20558;-73
2023/08/13 01:01:10;;;;;;;9.65;3.45;;;15.90;99.90;;;;;;5053427;28;20511;-73
2023/08/13 01:03:37;;;;;;;15.07;3.55;;;15.70;99.90;;;;;;5048826;28;20247;-73
2023/08/13 01:06:19;;;;;;;11.05;2.80;;;15.80;99.90;;;;;;5047658;28;20041;-74
2023/08/13 01:09:02;;;;;;;10.38;3.42;;;15.90;99.90;;;;;;5035160;28;20056;-73
2023/08/13 01:11:52;;;;;;;8.60;2.90;;;16.00;99.90;;;;;;5035674;28;20041;-73
2023/08/13 01:14:32;;;;;;;11.30;2.78;;;16.00;99.90;;;;;;5035190;28;20060;-74
2023/08/13 01:16:59;;;;;;;11.52;3.22;;;15.70;99.90;;;;;;5035343;28;20037;-73
2023/08/13 01:19:25;;;;;;;11.68;2.63;;;15.80;99.90;;;;;;5035478;28;20060;-73
2023/08/13 01:21:51;;;;;;;13.07;3.53;;;15.80;99.90;;;;;;5035558;28;20041;-73
2023/08/13 01:24:16;;;;;;;12.38;3.08;;;15.90;99.90;;;;;;5053507;28;20041;-74
2023/08/13 01:27:06;;;;;;;14.45;3.20;;;15.70;99.90;;;;;;5035167;28;20040;-73
2023/08/13 01:29:46;;;;;;;10.38;3.00;;;15.90;99.90;;;;;;5052515;28;20401;-73
2023/08/13 01:32:14;;;;;;;10.85;3.35;;;16.10;99.90;;;;;;5052779;28;20029;-73
2023/08/13 01:34:41;;;;;;;9.85;2.90;;;15.80;99.90;;;;;;5052396;28;20033;-73
2023/08/13 01:37:08;;;;;;;7.53;3.10;;;16.10;99.90;;;;;;5052767;28;20037;-73
2023/08/13 01:39:34;;;;;;;8.95;3.00;;;15.70;99.90;;;;;;5044195;28;20041;-73
2023/08/13 01:41:59;;;;;;;13.70;3.80;;;15.60;99.90;;;;;;5052627;28;20041;-73
2023/08/13 01:44:25;;;;;;;8.55;2.90;;;16.10;99.90;;;;;;5052873;28;20099;-73
2023/08/13 01:46:51;;;;;;;11.80;3.00;;;15.80;99.90;;;;;;5052667;28;20163;-73
2023/08/13 01:49:19;;;;;;;11.70;3.80;;;16.10;99.90;;;;;;5052405;28;20407;-73
2023/08/13 01:51:45;;;;;;;11.48;3.95;;;15.90;99.90;;;;;;5052558;28;20041;-73
2023/08/13 01:54:10;;;;;;;9.07;3.00;;;15.80;99.90;;;;;;5052537;28;20039;-73
2023/08/13 01:56:36;;;;;;;10.60;3.38;;;16.00;99.90;;;;;;5034639;28;20053;-73
2023/08/13 01:59:01;;;;;;;13.38;3.17;;;15.70;99.90;;;;;;5018162;28;20037;-73
2023/08/13 02:01:27;;;;;;;9.82;3.40;;;15.90;99.90;;;;;;5052440;28;20033;-73
2023/08/13 02:03:53;;;;;;;11.02;3.15;;;16.00;99.90;;;;;;5052410;28;20040;-73
2023/08/13 02:06:18;;;;;;;12.05;3.45;;;15.80;99.90;;;;;;5052364;28;20519;-73
2023/08/13 02:08:44;;;;;;;12.65;3.20;;;15.70;99.90;;;;;;5052065;28;20047;-73
2023/08/13 02:11:09;;;;;;;10.13;3.28;;;16.20;99.90;;;;;;5034506;28;20045;-73
2023/08/13 02:13:35;;;;;;;11.98;3.88;;;15.80;99.90;;;;;;5052068;28;20039;-73
2023/08/13 02:16:04;;;;;;;15.30;2.78;;;16.10;99.90;;;;;;5052159;28;20080;-73
2023/08/13 02:18:30;;;;;;;11.77;3.15;;;16.00;99.90;;;;;;5051831;28;20043;-73
2023/08/13 02:20:56;;;;;;;10.90;3.45;;;16.10;99.90;;;;;;5052005;28;20570;-73
2023/08/13 02:23:21;;;;;;;12.02;3.67;;;16.00;99.90;;;;;;5034100;28;20045;-73
2023/08/13 02:25:47;;;;;;;12.80;3.72;;;16.10;99.90;;;;;;5034115;28;20470;-73
2023/08/13 02:28:13;;;;;;;13.48;3.40;;;16.00;99.90;;;;;;5051918;28;20419;-73
2023/08/13 02:30:39;;;;;;;11.80;3.08;;;16.10;99.90;;;;;;5051714;28;20098;-73
2023/08/13 02:33:05;;;;;;;16.20;3.42;;;16.20;99.90;;;;;;5051914;28;20044;-73
2023/08/13 02:35:30;;;;;;;9.15;3.13;;;15.80;99.90;;;;;;5051701;28;20045;-73
2023/08/13 02:37:56;;;;;;;12.75;2.95;;;16.10;99.90;;;;;;5051573;28;20074;-73
2023/08/13 02:40:21;;;;;;;11.20;3.05;;;16.10;99.90;;;;;;5033837;28;20454;-73
2023/08/13 02:42:47;;;;;;;6.85;3.05;;;15.80;99.90;;;;;;5051981;28;20055;-73
2023/08/13 02:45:13;;;;;;;11.82;3.50;;;16.00;99.90;;;;;;5032914;28;20048;-73
2023/08/13 02:47:38;;;;;;;8.77;3.42;;;16.00;99.90;;;;;;5051453;28;20051;-73
2023/08/13 02:50:04;;;;;;;8.57;3.00;;;16.20;99.90;;;;;;5051209;28;20045;-72
2023/08/13 02:52:30;;;;;;;10.88;3.20;;;15.80;99.90;;;;;;5033917;28;20443;-73
2023/08/13 02:54:56;;;;;;;11.50;3.22;;;16.00;99.90;;;;;;5033644;28;20045;-73
2023/08/13 02:57:21;;;;;;;12.30;3.40;;;15.90;99.90;;;;;;5051489;28;20041;-73
2023/08/13 02:59:47;;;;;;;15.25;3.78;;;16.20;99.90;;;;;;5033709;28;20061;-73
2023/08/13 03:02:13;;;;;;;7.22;2.85;;;15.80;99.90;;;;;;5051556;28;20044;-73
2023/08/13 03:04:38;;;;;;;12.60;3.22;;;16.10;99.90;;;;;;5051552;28;20033;-73
2023/08/13 03:07:04;;;;;;;12.60;3.28;;;16.10;99.90;;;;;;5051368;28;20066;-73
2023/08/13 03:09:30;;;;;;;11.93;3.80;;;16.00;99.90;;;;;;5033435;28;20041;-73
2023/08/13 03:11:55;;;;;;;13.88;3.47;;;15.70;99.90;;;;;;5033499;28;20041;-73
2023/08/13 03:14:21;;;;;;;11.50;3.85;;;15.70;99.90;;;;;;5051345;28;20414;-73
2023/08/13 03:16:46;;;;;;;12.60;3.85;;;16.10;99.90;;;;;;5051273;28;20075;-73
2023/08/13 03:19:12;;;;;;;11.15;3.58;;;16.00;99.90;;;;;;5051247;28;20072;-73
2023/08/13 03:21:38;;;;;;;11.43;3.28;;;16.00;99.90;;;;;;5051273;28;20041;-73
2023/08/13 03:24:04;;;;;;;11.98;3.65;;;15.90;99.90;;;;;;5051278;28;20041;-73
2023/08/13 03:26:30;;;;;;;11.82;3.45;;;15.70;99.90;;;;;;5033551;28;20070;-73
2023/08/13 03:28:56;;;;;;;13.40;3.58;;;15.60;99.90;;;;;;5051257;28;20060;-73
2023/08/13 03:31:21;;;;;;;13.88;3.50;;;15.60;99.90;;;;;;5051138;28;20412;-73
2023/08/13 03:33:47;;;;;;;9.23;3.20;;;15.60;99.90;;;;;;5051329;28;20069;-73
2023/08/13 03:36:12;;;;;;;12.35;3.67;;;15.60;99.90;;;;;;5051076;28;20564;-73
2023/08/13 03:38:38;;;;;;;11.52;3.35;;;15.50;99.90;;;;;;5050771;28;20033;-73
2023/08/13 03:41:03;;;;;;;9.75;3.47;;;15.50;99.90;;;;;;5051275;28;20045;-73
2023/08/13 03:43:29;;;;;;;8.95;3.15;;;15.50;99.90;;;;;;5051278;28;20401;-73
2023/08/13 03:45:55;;;;;;;9.95;3.38;;;15.70;99.90;;;;;;5051171;28;20399;-73
2023/08/13 03:48:20;;;;;;;10.68;3.35;;;15.80;99.90;;;;;;5050903;28;20037;-73
2023/08/13 03:50:46;;;;;;;10.68;3.70;;;15.80;99.90;;;;;;5050986;28;20524;-73
2023/08/13 03:53:12;;;;;;;10.77;3.67;;;15.50;99.90;;;;;;5050967;28;20413;-73
2023/08/13 03:55:38;;;;;;;9.68;2.78;;;15.80;99.90;;;;;;5051129;28;20076;-73
2023/08/13 03:58:04;;;;;;;7.63;3.67;;;15.40;99.90;;;;;;5054281;28;20040;-73
2023/08/13 04:00:30;;;;;;;14.40;3.90;;;15.70;99.90;;;;;;5054646;28;20158;-73
2023/08/13 04:02:56;;;;;;;12.00;4.00;;;15.50;99.90;;;;;;5054489;28;20048;-73
2023/08/13 04:05:22;;;;;;;12.27;4.15;;;15.60;99.90;;;;;;5054569;28;20037;-73
2023/08/13 04:07:47;;;;;;;8.15;4.40;;;15.60;99.90;;;;;;5054198;28;20043;-73
2023/08/13 04:10:13;;;;;;;9.82;3.40;;;15.70;99.90;;;;;;5054360;28;20143;-73
2023/08/13 04:12:38;;;;;;;13.50;3.47;;;15.70;99.90;;;;;;5054544;28;20037;-73
2023/08/13 04:15:05;;;;;;;10.52;4.60;;;15.40;99.90;;;;;;5054403;28;20505;-73
2023/08/13 04:17:30;;;;;;;10.82;3.13;;;15.50;99.90;;;;;;5054100;28;20098;-73
2023/08/13 04:19:56;;;;;;;9.55;3.15;;;15.30;99.90;;;;;;5036400;28;20521;-73
2023/08/13 04:22:22;;;;;;;10.88;3.90;;;15.50;99.90;;;;;;5036245;28;20074;-73
2023/08/13 04:24:51;;;;;;;10.10;3.60;;;15.60;99.90;;;;;;5036610;28;20041;-73
2023/08/13 04:27:19;;;;;;;10.13;3.47;;;15.30;99.90;;;;;;5054261;28;20048;-73
2023/08/13 04:29:45;;;;;;;9.23;3.42;;;15.30;99.90;;;;;;5054177;28;20041;-73
2023/08/13 04:32:11;;;;;;;11.63;4.03;;;15.50;99.90;;;;;;5090224;22;20051;-72
2023/08/13 04:34:37;;;;;;;12.30;4.22;;;15.60;99.90;;;;;;5072728;28;20301;-72
2023/08/13 04:37:04;;;;;;;9.70;3.97;;;15.40;99.90;;;;;;5072506;28;20411;-72
2023/08/13 04:39:29;;;;;;;10.52;3.58;;;15.70;99.90;;;;;;5073994;28;20047;-72
2023/08/13 04:42:02;;;;;;;8.40;3.80;;;15.40;99.90;;;;;;5073889;28;20115;-72
2023/08/13 04:44:27;;;;;;;14.82;3.92;;;15.90;99.90;;;;;;5073864;28;20041;-72
2023/08/13 04:46:53;;;;;;;16.52;4.95;;;15.90;99.90;;;;;;5073707;28;20123;-71
2023/08/13 04:49:19;;;;;;;13.60;4.50;;;16.00;99.90;;;;;;5072310;28;20305;-72
2023/08/13 04:51:44;;;;;;;8.48;3.78;;;15.80;99.90;;;;;;5072231;28;20044;-72
2023/08/13 04:54:10;;;;;;;17.33;4.32;;;15.70;99.90;;;;;;5072079;28;20043;-71
2023/08/13 04:56:36;;;;;;;9.02;3.78;;;15.90;99.90;;;;;;5072227;28;20051;-72
2023/08/13 04:59:01;;;;;;;8.48;3.80;;;15.80;99.90;;;;;;5069476;28;20036;-72
2023/08/13 05:01:27;;;;;;;13.52;3.90;;;15.90;99.90;;;;;;5060686;28;20145;-72
2023/08/13 05:03:53;;;;;;;12.00;3.70;;;15.90;99.90;;;;;;5047378;28;20039;-72
2023/08/13 05:06:18;;;;;;;11.93;3.75;;;16.00;99.90;;;;;;5072291;28;20052;-72
2023/08/13 05:08:44;;;;;;;10.77;3.85;;;16.00;99.90;;;;;;5072268;28;20036;-72
2023/08/13 05:11:09;;;;;;;14.98;4.75;;;16.50;99.90;;;;;;5071970;28;20040;-72
2023/08/13 05:13:35;;;;;;;14.27;3.67;;;16.30;99.90;;;;;;5072243;28;20044;-72
2023/08/13 05:16:01;;;;;;;9.85;3.83;;;16.30;99.90;;;;;;5071786;28;20044;-72
2023/08/13 05:18:26;;;;;;;14.98;4.15;;;16.60;99.90;;;;;;5072940;28;20024;-72
2023/08/13 05:20:52;;;;;;;12.07;3.85;;;16.40;99.90;;;;;;5072956;28;20036;-72
2023/08/13 05:23:17;;;;;;;9.65;4.63;;;16.60;99.90;;;;;;5073236;28;20475;-72
2023/08/13 05:25:43;;;;;;;10.70;3.40;;;16.30;99.90;;;;;;5073067;28;20304;-72
2023/08/13 05:28:09;;;;;;;13.60;4.88;;;16.20;99.90;;;;;;5071372;28;20090;-72
2023/08/13 05:30:38;;;;;;;10.27;3.63;;;16.50;99.90;;;;;;5071543;28;20063;-72
2023/08/13 05:33:04;;;;;;;11.02;4.90;;;16.70;99.90;;;;;;5071620;28;20508;-72
2023/08/13 05:35:29;;;;;;;9.65;4.60;;;16.60;99.90;;;;;;5071401;28;20530;-74
2023/08/13 05:37:55;;;;;;;12.18;3.30;;;16.80;99.90;;;;;;5071274;28;20041;-72
2023/08/13 05:40:21;;;;;;;15.57;4.05;;;16.70;99.90;;;;;;5071614;28;20492;-72
2023/08/13 05:42:47;;;;;;;14.20;4.18;;;16.80;99.90;;;;;;5071272;28;20075;-72
2023/08/13 05:45:13;;;;;;;13.25;4.40;;;16.90;99.90;;;;;;5071338;28;20039;-72
2023/08/13 05:47:38;;;;;;;12.73;3.90;;;16.70;99.90;;;;;;5054360;28;20036;-72
2023/08/13 05:50:04;;;;;;;10.48;4.10;;;17.00;99.90;;;;;;5071187;28;20036;-72
2023/08/13 05:52:30;;;;;;;11.55;3.88;;;16.50;99.90;;;;;;5054664;28;20040;-72
2023/08/13 05:54:56;;;;;;;17.77;4.15;;;16.90;99.90;;;;;;5071268;28;20032;-72
2023/08/13 05:57:22;;;;;;;11.55;3.72;;;16.80;99.90;;;;;;5070775;28;20488;-72
2023/08/13 05:59:47;;;;;;;11.18;3.72;;;16.90;99.90;;;;;;5071013;28;20089;-72
2023/08/13 06:02:13;;;;;;;11.30;4.10;;;16.60;99.90;;;;;;5071222;28;20408;-72
2023/08/13 06:04:38;;;;;;;7.93;3.22;;;16.90;99.90;;;;;;5070889;28;20046;-72
2023/08/13 06:07:04;;;;;;;10.50;4.30;;;16.80;99.90;;;;;;5070782;28;20042;-72
2023/08/13 06:09:30;;;;;;;13.82;4.97;;;17.00;99.90;;;;;;5071001;28;20039;-72
2023/08/13 06:11:56;;;;;;;13.18;4.20;;;16.60;99.90;;;;;;5070729;28;20037;-72
2023/08/13 06:14:21;;;;;;;9.55;3.80;;;16.90;99.90;;;;;;5070752;28;20041;-72
2023/08/13 06:16:47;;;;;;;9.50;4.15;;;16.70;99.90;;;;;;5070610;28;20408;-72
2023/08/13 06:19:13;;;;;;;11.27;3.72;;;17.20;99.90;;;;;;5070542;28;20089;-72
2023/08/13 06:21:39;;;;;;;10.48;4.15;;;17.00;99.90;;;;;;5070605;28;20039;-72
2023/08/13 06:24:05;;;;;;;18.70;6.25;;;17.20;99.90;;;;;;5054053;28;20052;-72
2023/08/13 06:26:31;;;;;;;11.50;4.00;;;17.20;99.90;;;;;;5070560;28;20045;-72
2023/08/13 06:28:57;;;;;;;14.95;3.83;;;17.30;99.90;;;;;;5071813;28;20036;-72
2023/08/13 06:31:23;;;;;;;12.75;3.60;;;17.70;99.90;;;;;;5071652;28;20051;-72
2023/08/13 06:33:48;;;;;;;7.80;4.10;;;18.30;99.90;;;;;;5070746;28;20075;-72
2023/08/13 06:36:14;;;;;;;11.30;3.80;;;18.70;99.90;;;;;;5070469;28;20621;-72
2023/08/13 06:38:40;;;;;;;10.43;3.45;;;19.00;99.90;;;;;;5070236;28;20074;-72
2023/08/13 06:41:08;;;;;;;10.27;3.63;;;19.40;99.90;;;;;;5070595;28;20082;-73
2023/08/13 06:43:34;;;;;;;7.53;3.00;;;19.40;99.90;;;;;;5070689;28;20040;-72
2023/08/13 06:46:00;;;;;;;11.50;3.38;;;19.10;99.90;;;;;;5070618;28;20036;-72
2023/08/13 06:48:27;;;;;;;10.68;3.60;;;19.00;99.90;;;;;;5071352;28;20404;-73
2023/08/13 06:50:56;;;;;;;11.43;3.50;;;19.00;99.90;;;;;;5070301;28;20127;-72
2023/08/13 06:53:23;;;;;;;11.40;3.35;;;19.40;99.90;;;;;;5070631;28;20403;-72
2023/08/13 06:55:48;;;;;;;7.88;3.47;;;19.50;99.90;;;;;;5070259;28;20063;-72
2023/08/13 06:58:14;;;;;;;9.55;3.60;;;19.90;99.90;;;;;;5064908;28;20511;-72
2023/08/13 07:00:44;;;;;;;10.80;3.97;;;20.20;99.90;;;;;;5057665;28;20174;-72
2023/08/13 07:03:10;;;;;;;13.20;4.10;;;19.80;99.90;;;;;;5059658;28;20037;-72
2023/08/13 07:05:37;;;;;;;7.50;2.67;;;19.40;99.90;;;;;;5054890;28;20540;-71
2023/08/13 07:08:04;;;;;;;10.00;3.28;;;19.40;99.90;;;;;;5061518;28;20068;-72
2023/08/13 07:10:30;;;;;;;10.15;3.17;;;19.90;99.90;;;;;;5066090;28;20041;-71
2023/08/13 07:12:56;;;;;;;7.63;3.60;;;19.90;99.90;;;;;;5050393;28;20412;-72
2023/08/13 07:15:21;;;;;;;13.10;3.95;;;20.00;99.90;;;;;;5055554;28;20182;-73
2023/08/13 07:17:47;;;;;;;7.45;3.22;;;20.10;99.90;;;;;;5056397;28;20029;-71
2023/08/13 07:20:14;;;;;;;16.95;3.70;;;20.60;99.90;;;;;;5051473;28;20504;-72
2023/08/13 07:22:42;;;;;;;9.60;3.35;;;20.60;99.90;;;;;;5051989;28;20043;-71
2023/08/13 07:25:08;;;;;;;8.82;3.50;;;21.00;99.90;;;;;;5055009;28;20043;-72
2023/08/13 07:27:34;;;;;;;14.50;3.83;;;21.30;99.90;;;;;;5059100;28;20049;-72
2023/08/13 07:30:00;;;;;;;9.63;3.15;;;21.30;99.90;;;;;;5057134;28;20047;-72
2023/08/13 07:32:27;;;;;;;8.52;2.63;;;21.40;99.90;;;;;;5067619;28;20594;-72
2023/08/13 07:34:53;;;;;;;11.20;3.00;;;21.60;99.90;;;;;;5061185;28;20466;-72
2023/08/13 07:37:19;;;;;;;7.85;3.05;;;21.90;99.90;;;;;;5062249;28;20041;-71
2023/08/13 07:39:44;;;;;;;10.90;3.50;;;21.70;99.90;;;;;;5057399;28;20087;-72
2023/08/13 07:42:10;;;;;;;11.25;3.38;;;21.80;99.90;;;;;;5059707;28;20037;-72
2023/08/13 07:44:36;;;;;;;9.02;2.95;;;21.50;99.90;;;;;;5068312;28;20046;-72
2023/08/13 07:47:01;;;;;;;8.30;2.60;;;21.60;99.90;;;;;;5062097;28;20055;-71
2023/08/13 07:49:27;;;;;;;11.07;3.05;;;22.00;99.90;;;;;;5063443;28;20053;-72
2023/08/13 07:51:53;;;;;;;5.88;2.75;;;22.10;99.90;;;;;;5058743;28;20045;-71
2023/08/13 07:54:22;;;;;;;7.85;2.47;;;22.50;99.90;;;;;;5059793;28;20032;-72
2023/08/13 07:56:48;;;;;;;10.52;2.78;;;22.60;99.90;;;;;;5058300;28;20040;-71
2023/08/13 07:59:14;;;;;;;5.55;2.97;;;22.80;99.90;;;;;;5059829;28;20289;-72
2023/08/13 08:01:40;;;;;;;7.57;2.60;;;22.80;99.90;;;;;;5058239;28;20147;-72
2023/08/13 08:04:06;;;;;;;6.38;2.45;;;22.60;99.90;;;;;;5060913;28;20381;-72
2023/08/13 08:06:31;;;;;;;13.63;2.47;;;22.40;99.90;;;;;;5062742;28;20127;-72
2023/08/13 08:08:57;;;;;;;8.02;2.40;;;21.90;99.90;;;;;;5062829;28;20507;-72
2023/08/13 08:11:23;;;;;;;8.60;2.80;;;22.10;99.90;;;;;;5065946;28;20416;-72
2023/08/13 08:13:49;;;;;;;11.00;2.97;;;22.00;99.90;;;;;;5046114;28;20091;-72
2023/08/13 08:16:15;;;;;;;8.05;2.45;;;22.10;99.90;;;;;;5062488;28;20041;-72
2023/08/13 08:18:40;;;;;;;8.73;2.72;;;22.50;99.90;;;;;;5067011;28;20039;-72
2023/08/13 08:21:06;;;;;;;6.50;2.25;;;22.50;99.90;;;;;;5061016;28;20036;-72
2023/08/13 08:23:33;;;;;;;9.82;3.13;;;22.60;99.90;;;;;;5060969;28;20125;-72
2023/08/13 08:25:58;;;;;;;5.35;2.30;;;22.40;99.90;;;;;;5052316;28;20108;-71
2023/08/13 08:28:25;;;;;;;15.35;3.10;;;22.50;99.90;;;;;;5067542;28;20432;-72
2023/08/13 08:30:51;;;;;;;6.55;2.33;;;22.50;99.90;;;;;;5062093;28;20148;-72
2023/08/13 08:33:16;;;;;;;9.13;2.50;;;22.40;99.90;;;;;;5059487;28;20101;-72
2023/08/13 08:35:42;;;;;;;11.70;2.13;;;22.30;99.90;;;;;;5056641;28;20063;-72
2023/08/13 08:38:07;;;;;;;8.18;3.17;;;22.60;99.90;;;;;;5062755;28;20051;-72
2023/08/13 08:40:33;;;;;;;5.95;2.42;;;22.80;99.90;;;;;;5064094;28;20040;-73
2023/08/13 08:42:58;;;;;;;9.27;2.45;;;23.10;99.90;;;;;;5059064;28;20044;-72
2023/08/13 08:45:24;;;;;;;7.25;2.70;;;23.30;99.90;;;;;;5060611;28;20128;-72
2023/08/13 08:47:52;;;;;;;8.32;2.45;;;23.30;99.90;;;;;;5061522;28;20037;-72
2023/08/13 08:50:17;;;;;;;8.77;2.75;;;23.10;99.90;;;;;;5061263;28;20037;-73
2023/08/13 08:52:43;;;;;;;8.20;2.95;;;22.70;99.90;;;;;;5061695;28;20037;-72
2023/08/13 08:55:11;;;;;;;6.95;2.10;;;22.10;99.90;;;;;;5061822;28;20644;-72
2023/08/13 08:57:37;;;;;;;8.00;2.47;;;22.00;99.90;;;;;;5060095;28;20106;-72
2023/08/13 09:00:04;;;;;;;5.22;1.80;;;22.00;99.90;;;;;;5046565;28;20713;-72
2023/08/13 09:02:30;;;;;;;7.00;1.67;;;22.10;99.90;;;;;;5046994;28;20567;-72
2023/08/13 09:04:56;;;;;;;4.70;1.80;;;21.80;99.90;;;;;;5063117;28;20040;-72
2023/08/13 09:07:30;;;;;;;8.68;2.47;;;21.90;99.90;;;;;;5060803;28;20071;-72
2023/08/13 09:09:55;;;;;;;7.40;2.47;;;22.10;99.90;;;;;;5060465;28;20120;-72
2023/08/13 09:12:21;;;;;;;6.22;1.60;;;22.60;99.90;;;;;;5051852;28;20560;-72
2023/08/13 09:14:47;;;;;;;5.65;1.90;;;22.50;99.90;;;;;;5061430;28;20048;-72
2023/08/13 09:17:12;;;;;;;5.13;1.70;;;23.00;99.90;;;;;;5059470;28;20040;-72
2023/08/13 09:19:38;;;;;;;7.90;2.45;;;23.30;99.90;;;;;;5058418;28;20037;-72
2023/08/13 09:22:06;;;;;;;4.05;1.63;;;23.40;99.90;;;;;;5060116;28;20049;-72
2023/08/13 09:24:39;;;;;;;6.47;2.03;;;23.60;99.90;;;;;;5035438;28;20041;-72
2023/08/13 09:27:06;;;;;;;6.57;1.85;;;23.90;99.90;;;;;;5051576;28;20051;-73
2023/08/13 09:29:33;;;;;;;6.03;2.25;;;24.20;99.90;;;;;;5057838;28;20041;-73
2023/08/13 09:32:00;;;;;;;5.93;1.67;;;23.70;99.90;;;;;;5062966;28;20033;-73
2023/08/13 09:34:29;;;;;;;6.00;2.60;;;23.70;99.90;;;;;;5038856;28;20048;-73
2023/08/13 09:36:55;;;;;;;8.43;1.70;;;23.30;99.90;;;;;;5062203;28;20407;-72
2023/08/13 09:39:26;;;;;;;8.45;1.90;;;23.30;99.90;;;;;;5061796;28;20037;-73
2023/08/13 09:41:52;;;;;;;6.05;1.88;;;23.50;99.90;;;;;;5062224;28;20041;-73
2023/08/13 09:44:20;;;;;;;6.10;1.40;;;23.60;99.90;;;;;;5062965;28;20036;-72
2023/08/13 09:46:49;;;;;;;8.85;1.73;;;23.60;99.90;;;;;;5062786;28;20041;-72
2023/08/13 09:49:16;;;;;;;4.55;1.58;;;23.70;99.90;;;;;;5058513;28;20127;-73
2023/08/13 09:51:43;;;;;;;3.80;1.50;;;23.60;99.90;;;;;;5045057;28;20411;-72
2023/08/13 09:54:15;;;;;;;9.73;2.15;;;23.50;99.90;;;;;;5063987;28;20048;-73
2023/08/13 09:56:42;;;;;;;5.65;1.73;;;23.30;99.90;;;;;;5054786;28;20037;-73
2023/08/13 09:59:09;;;;;;;3.03;1.50;;;23.50;99.90;;;;;;5054338;28;20043;-73
2023/08/13 10:01:36;;;;;;;6.32;1.75;;;23.60;99.90;;;;;;5060135;28;20467;-73
2023/08/13 10:04:03;;;;;;;5.75;1.98;;;23.60;99.90;;;;;;5065533;28;20033;-73
2023/08/13 10:06:29;;;;;;;8.63;1.90;;;23.70;99.90;;;;;;5058265;28;20056;-73
2023/08/13 10:08:55;;;;;;;5.03;1.65;;;23.70;99.90;;;;;;5061591;28;20041;-72
2023/08/13 10:11:22;;;;;;;3.63;1.40;;;23.70;99.90;;;;;;5060218;28;20044;-72
2023/08/13 10:13:48;;;;;;;6.50;1.55;;;23.70;99.90;;;;;;5052771;28;20039;-73
2023/08/13 10:16:15;;;;;;;4.25;1.40;;;23.30;99.90;;;;;;5057474;28;20044;-73
2023/08/13 10:18:45;;;;;;;6.28;1.63;;;23.20;99.90;;;;;;5062106;28;20449;-73
2023/08/13 10:21:13;;;;;;;5.13;1.70;;;22.90;99.90;;;;;;5063116;28;20037;-73
2023/08/13 10:23:39;;;;;;;6.38;1.60;;;22.80;99.90;;;;;;5058607;28;20033;-73
2023/08/13 10:26:05;;;;;;;3.67;1.52;;;22.50;99.90;;;;;;5051689;28;20063;-72
2023/08/13 10:28:31;;;;;;;5.97;1.88;;;22.60;99.90;;;;;;5051294;28;20047;-73
2023/08/13 10:31:34;;;;;;;5.38;2.13;;;22.40;99.90;;;;;;5074910;22;20044;-75
2023/08/13 10:34:09;;;;;;;6.93;1.63;;;22.30;99.90;;;;;;4982063;28;20034;-75
2023/08/13 10:36:44;;;;;;;4.40;1.35;;;22.00;99.90;;;;;;5026794;28;20307;-74
2023/08/13 10:39:57;;;;;;;4.43;1.55;;;22.00;99.90;;;;;;5013723;28;20045;-75
2023/08/13 10:42:32;;;;;;;6.30;1.52;;;21.90;99.90;;;;;;4923345;29;20537;-73
2023/08/13 10:45:02;;;;;;;6.45;1.58;;;22.00;99.90;;;;;;4900469;29;20054;-73
2023/08/13 10:47:47;;;;;;;7.38;2.25;;;22.00;99.90;;;;;;4976123;28;20050;-73
2023/08/13 10:50:22;;;;;;;6.78;1.95;;;22.20;99.90;;;;;;5010357;28;20570;-72
2023/08/13 10:52:55;;;;;;;4.35;1.45;;;22.20;99.90;;;;;;5026674;28;20117;-72
2023/08/13 10:55:24;;;;;;;5.28;2.00;;;22.30;99.90;;;;;;5011604;28;20080;-73
2023/08/13 10:57:53;;;;;;;4.75;1.60;;;22.40;99.90;;;;;;5010353;28;20549;-73
2023/08/13 11:00:24;;;;;;;5.18;1.77;;;22.40;99.90;;;;;;5011455;28;20041;-73
2023/08/13 11:03:25;;;;;;;4.47;1.45;;;22.40;99.90;;;;;;5004477;28;20045;-72
2023/08/13 11:05:51;;;;;;;6.95;2.22;;;22.60;99.90;;;;;;4998874;28;20041;-72
2023/08/13 11:08:22;;;;;;;3.35;1.58;;;22.60;99.90;;;;;;5013089;28;20119;-73
2023/08/13 11:10:49;;;;;;;7.15;1.83;;;22.90;99.90;;;;;;5016903;28;20121;-73
2023/08/13 11:13:20;;;;;;;6.35;1.60;;;22.90;99.90;;;;;;5012028;28;20052;-73
2023/08/13 11:16:01;;;;;;;6.45;1.20;;;22.90;99.90;;;;;;5015285;28;20557;-73
2023/08/13 11:18:26;;;;;;;4.82;1.20;;;22.80;99.90;;;;;;5015408;28;20042;-73
2023/08/13 11:20:52;;;;;;;3.92;1.10;;;22.80;99.90;;;;;;5013253;28;20494;-73
2023/08/13 11:23:20;;;;;;;4.28;1.20;;;22.60;99.90;;;;;;5011069;28;20038;-73
2023/08/13 11:25:49;;;;;;;4.20;1.40;;;22.40;99.90;;;;;;5012505;28;20042;-73
2023/08/13 11:28:32;;;;;;;5.40;1.15;;;22.40;99.90;;;;;;5004085;28;20042;-72
2023/08/13 11:30:58;;;;;;;3.78;1.10;;;22.30;99.90;;;;;;5005117;28;20477;-73
2023/08/13 11:33:24;;;;;;;4.53;1.10;;;22.20;99.90;;;;;;5004001;28;20077;-73
2023/08/13 11:35:51;;;;;;;3.97;1.23;;;22.30;99.90;;;;;;5000276;28;20072;-73
2023/08/13 11:38:18;;;;;;;5.53;1.60;;;22.40;99.90;;;;;;5002317;28;20464;-73
2023/08/13 11:40:43;;;;;;;4.05;1.55;;;22.40;99.90;;;;;;5005969;28;20046;-73
2023/08/13 11:43:10;;;;;;;5.50;1.58;;;22.30;99.90;;;;;;5013897;28;20038;-73
2023/08/13 11:45:37;;;;;;;3.15;1.10;;;22.10;99.90;;;;;;5008207;28;20050;-74
2023/08/13 11:48:17;;;;;;;3.90;1.20;;;22.00;99.90;;;;;;5011521;28;20372;-74
2023/08/13 11:51:15;;;;;;;2.75;0.95;;;21.90;99.90;;;;;;5025855;28;20073;-73
2023/08/13 11:53:47;;;;;;;3.22;1.25;;;21.90;99.90;;;;;;5002716;28;20050;-74
2023/08/13 11:56:14;;;;;;;8.55;1.70;;;22.00;99.90;;;;;;5008528;28;20041;-73
2023/08/13 11:58:40;;;;;;;3.42;1.42;;;22.10;99.90;;;;;;4987819;28;20162;-74
2023/08/13 12:01:06;;;;;;;3.72;1.35;;;21.90;99.90;;;;;;5010223;28;20731;-74
2023/08/13 12:03:36;;;;;;;6.57;1.45;;;22.00;99.90;;;;;;5020704;28;20118;-73
2023/08/13 12:06:01;;;;;;;2.58;1.02;;;22.00;99.90;;;;;;5006240;28;20049;-72
2023/08/13 12:08:28;;;;;;;3.63;1.30;;;21.90;99.90;;;;;;5013266;28;20042;-72
2023/08/13 12:10:54;;;;;;;3.55;1.35;;;21.90;99.90;;;;;;5010863;28;20065;-73
2023/08/13 12:13:19;;;;;;;4.00;1.48;;;21.90;99.90;;;;;;5005899;28;20038;-73
2023/08/13 12:15:45;;;;;;;4.13;1.05;;;22.00;99.90;;;;;;5005072;28;20533;-74
2023/08/13 12:18:10;;;;;;;4.82;1.50;;;22.00;99.90;;;;;;5004181;28;20387;-74
2023/08/13 12:20:36;;;;;;;3.00;1.02;;;22.10;99.90;;;;;;5010367;28;20042;-73
2023/08/13 12:23:02;;;;;;;4.93;1.30;;;22.10;99.90;;;;;;5001556;28;20034;-74
2023/08/13 12:25:29;;;;;;;4.50;1.00;;;22.20;99.90;;;;;;4992110;28;20474;-74
2023/08/13 12:27:55;;;;;;;3.50;1.20;;;22.30;99.90;;;;;;5011552;28;20057;-74
2023/08/13 12:30:20;;;;;;;3.95;0.90;;;22.30;99.90;;;;;;5010100;28;20421;-73
2023/08/13 12:32:46;;;;;;;3.83;1.02;;;22.40;99.90;;;;;;5002774;28;20523;-74
2023/08/13 12:35:12;;;;;;;2.92;1.10;;;22.50;99.90;;;;;;5006720;28;20049;-73
2023/08/13 12:37:38;;;;;;;2.13;1.38;;;22.40;99.90;;;;;;5026547;28;20042;-73
2023/08/13 12:40:04;;;;;;;5.57;1.48;;;22.40;99.90;;;;;;5012545;28;20183;-73
2023/08/13 12:42:30;;;;;;;14.80;8.70;;;22.40;99.90;;;;;;5012027;28;20502;-72